Time;durP1;ratioP1;P1;durP2;ratioP2;P2;SDS_P1;SDS_P2;PMS_P1;PMS_P2;Temp;Humidity;BMP_temperature;BMP_pressure;BME280_temperature;BME280_humidity;BME280_pressure;Samples;Min_cycle;Max_cycle;Signal;HPM_P1;HPM_P2
2023/03/12 00:01:58;;;;;;;10.48;2.30;;;26.20;99.90;;;;;;5109231;28;20194;-80
2023/03/12 00:04:33;;;;;;;8.20;1.90;;;26.20;99.90;;;;;;5103081;28;20191;-78
2023/03/12 00:07:05;;;;;;;7.93;2.08;;;26.20;99.90;;;;;;5107513;28;20649;-78
2023/03/12 00:09:39;;;;;;;8.70;2.05;;;26.20;99.90;;;;;;5091875;28;20191;-77
2023/03/12 00:12:10;;;;;;;6.63;2.08;;;26.10;99.90;;;;;;5101092;28;20195;-77
2023/03/12 00:14:41;;;;;;;9.48;2.10;;;26.10;99.90;;;;;;5109043;28;20194;-78
2023/03/12 00:17:12;;;;;;;7.25;1.88;;;26.20;99.90;;;;;;5099843;28;20218;-78
2023/03/12 00:19:46;;;;;;;5.80;1.95;;;26.30;99.90;;;;;;5113515;28;20222;-77
2023/03/12 00:22:17;;;;;;;5.65;2.05;;;26.30;99.90;;;;;;5096836;28;20207;-78
2023/03/12 00:24:52;;;;;;;10.55;2.10;;;26.30;99.90;;;;;;5095023;28;20191;-78
2023/03/12 00:27:23;;;;;;;9.55;2.28;;;26.30;99.90;;;;;;5092979;28;20241;-78
2023/03/12 00:29:54;;;;;;;4.63;1.95;;;26.30;99.90;;;;;;5107605;28;20206;-78
2023/03/12 00:32:26;;;;;;;7.85;2.35;;;26.40;99.90;;;;;;5113596;28;20203;-77
2023/03/12 00:34:59;;;;;;;10.95;2.40;;;26.50;99.90;;;;;;5109982;28;20190;-78
2023/03/12 00:37:31;;;;;;;7.45;2.60;;;26.50;99.90;;;;;;5107463;28;20206;-77
2023/03/12 00:40:04;;;;;;;6.80;2.22;;;26.60;99.90;;;;;;5092817;28;20280;-78
2023/03/12 00:42:35;;;;;;;6.07;2.00;;;26.60;99.90;;;;;;5106302;28;20206;-78
2023/03/12 00:45:07;;;;;;;7.00;2.10;;;26.60;99.90;;;;;;5101052;28;20568;-77
2023/03/12 00:47:39;;;;;;;7.30;2.22;;;26.70;99.90;;;;;;5106978;28;20199;-78
2023/03/12 00:50:13;;;;;;;7.32;2.10;;;26.70;99.90;;;;;;5111737;28;20231;-78
2023/03/12 00:52:44;;;;;;;7.72;2.53;;;26.60;99.90;;;;;;5106869;28;20191;-78
2023/03/12 00:55:18;;;;;;;7.15;2.72;;;26.60;99.90;;;;;;5099281;28;20572;-77
2023/03/12 00:57:50;;;;;;;8.93;2.20;;;26.60;99.90;;;;;;5096865;28;20191;-77
2023/03/12 01:00:21;;;;;;;6.47;2.20;;;26.70;99.90;;;;;;5093500;28;20223;-77
2023/03/12 01:02:52;;;;;;;11.15;2.88;;;26.70;99.90;;;;;;5100916;28;20203;-77
2023/03/12 01:05:26;;;;;;;8.88;2.40;;;26.80;99.90;;;;;;5110214;28;20274;-79
2023/03/12 01:07:57;;;;;;;7.72;2.08;;;26.90;99.90;;;;;;5111842;28;20248;-76
2023/03/12 01:10:28;;;;;;;9.38;2.78;;;26.80;99.90;;;;;;5103251;28;20198;-79
2023/03/12 01:12:59;;;;;;;7.15;2.50;;;26.80;99.90;;;;;;5095303;28;20649;-78
2023/03/12 01:15:30;;;;;;;11.13;2.30;;;26.60;99.90;;;;;;5093901;28;20191;-79
2023/03/12 01:18:01;;;;;;;7.40;2.55;;;26.60;99.90;;;;;;5093387;28;20285;-77
2023/03/12 01:20:34;;;;;;;7.55;2.20;;;26.60;99.90;;;;;;5093356;28;20225;-78
2023/03/12 01:23:07;;;;;;;7.00;2.53;;;26.60;99.90;;;;;;5095275;28;20214;-78
2023/03/12 01:25:38;;;;;;;6.82;1.90;;;26.60;99.90;;;;;;5099834;28;20195;-78
2023/03/12 01:28:10;;;;;;;5.80;2.38;;;26.60;99.90;;;;;;5101662;28;20233;-78
2023/03/12 01:30:41;;;;;;;4.70;2.20;;;26.50;99.90;;;;;;5096656;28;20198;-78
2023/03/12 01:33:12;;;;;;;7.45;2.47;;;26.60;99.90;;;;;;5104223;28;20190;-78
2023/03/12 01:35:45;;;;;;;7.75;2.22;;;26.70;99.90;;;;;;5099903;28;20191;-77
2023/03/12 01:38:17;;;;;;;10.25;2.35;;;26.70;99.90;;;;;;5097361;28;20199;-78
2023/03/12 01:40:49;;;;;;;8.23;2.80;;;26.80;99.90;;;;;;5092008;28;20701;-78
2023/03/12 01:43:31;;;;;;;8.75;2.25;;;26.80;99.90;;;;;;5110292;28;20205;-78
2023/03/12 01:46:25;;;;;;;7.88;2.25;;;26.80;99.90;;;;;;5104216;28;20194;-78
2023/03/12 01:49:03;;;;;;;6.43;2.38;;;26.90;99.90;;;;;;5091266;28;20203;-78
2023/03/12 01:51:39;;;;;;;7.28;2.22;;;27.00;99.90;;;;;;5091928;28;20198;-78
2023/03/12 01:54:13;;;;;;;7.30;2.03;;;27.00;99.90;;;;;;5107800;28;20567;-78
2023/03/12 01:56:45;;;;;;;7.70;2.08;;;27.00;99.90;;;;;;5107082;28;20201;-78
2023/03/12 01:59:21;;;;;;;8.65;2.70;;;27.00;99.90;;;;;;5112204;28;20198;-78
2023/03/12 02:01:54;;;;;;;6.00;2.03;;;27.10;99.90;;;;;;5111994;28;20308;-78
2023/03/12 02:04:27;;;;;;;6.13;2.10;;;27.20;99.90;;;;;;5096045;28;20199;-78
2023/03/12 02:07:05;;;;;;;7.18;2.22;;;27.00;99.90;;;;;;5097034;28;20210;-78
2023/03/12 02:09:39;;;;;;;7.78;3.08;;;27.10;99.90;;;;;;5102860;28;20599;-77
2023/03/12 02:12:11;;;;;;;7.18;2.30;;;27.10;99.90;;;;;;5103007;28;20236;-79
2023/03/12 02:14:42;;;;;;;6.55;2.08;;;27.20;99.90;;;;;;5112673;28;20198;-79
2023/03/12 02:17:14;;;;;;;11.20;2.80;;;27.20;99.90;;;;;;5100189;28;20229;-79
2023/03/12 02:19:55;;;;;;;5.28;1.90;;;27.20;99.90;;;;;;5106461;28;20195;-78
2023/03/12 02:22:28;;;;;;;5.57;2.40;;;27.40;99.90;;;;;;5097547;28;20214;-79
2023/03/12 02:25:05;;;;;;;7.40;2.13;;;27.30;99.90;;;;;;5106531;28;20200;-78
2023/03/12 02:27:42;;;;;;;5.13;2.13;;;27.20;99.90;;;;;;5090776;28;20724;-79
2023/03/12 02:30:15;;;;;;;7.70;2.33;;;27.10;99.90;;;;;;5111803;28;20556;-79
2023/03/12 02:32:49;;;;;;;9.15;2.20;;;27.20;99.90;;;;;;5095289;28;20265;-78
2023/03/12 02:35:20;;;;;;;11.90;2.10;;;27.30;99.90;;;;;;5090836;28;20202;-80
2023/03/12 02:37:53;;;;;;;9.30;2.10;;;27.30;99.90;;;;;;5097859;28;20210;-79
2023/03/12 02:40:29;;;;;;;11.93;2.13;;;27.30;99.90;;;;;;5092815;28;20563;-78
2023/03/12 02:43:04;;;;;;;6.53;1.90;;;27.30;99.90;;;;;;5096298;28;20657;-78
2023/03/12 02:45:35;;;;;;;8.77;2.20;;;27.30;99.90;;;;;;5093646;28;20573;-79
2023/03/12 02:48:09;;;;;;;8.48;2.47;;;27.40;99.90;;;;;;5110590;28;20575;-78
2023/03/12 02:50:41;;;;;;;8.77;2.25;;;27.50;99.90;;;;;;5111832;28;20207;-78
2023/03/12 02:53:12;;;;;;;8.15;2.30;;;27.50;99.90;;;;;;5099828;28;20208;-77
2023/03/12 02:55:43;;;;;;;7.25;1.90;;;27.50;99.90;;;;;;5101069;28;20229;-78
2023/03/12 02:58:16;;;;;;;6.50;2.40;;;27.40;99.90;;;;;;5107313;28;20203;-78
2023/03/12 03:00:50;;;;;;;5.80;2.20;;;27.30;99.90;;;;;;5095128;28;20229;-77
2023/03/12 03:03:21;;;;;;;11.38;2.30;;;27.40;99.90;;;;;;5095554;28;20203;-78
2023/03/12 03:05:52;;;;;;;8.02;2.10;;;27.50;99.90;;;;;;5106953;28;20592;-78
2023/03/12 03:08:24;;;;;;;8.00;1.92;;;27.60;99.90;;;;;;5103601;28;20202;-77
2023/03/12 03:10:55;;;;;;;5.53;2.10;;;27.50;99.90;;;;;;5095306;28;20195;-78
2023/03/12 03:13:30;;;;;;;7.68;2.05;;;27.60;99.90;;;;;;5103868;28;20192;-79
2023/03/12 03:16:02;;;;;;;9.02;2.33;;;27.60;99.90;;;;;;5092913;28;20191;-80
2023/03/12 03:18:34;;;;;;;7.22;2.35;;;27.60;99.90;;;;;;5090431;28;20238;-79
2023/03/12 03:21:07;;;;;;;6.18;2.45;;;27.50;99.90;;;;;;5090558;28;20219;-79
2023/03/12 03:23:38;;;;;;;7.15;2.20;;;27.60;99.90;;;;;;5090444;28;20191;-78
2023/03/12 03:26:09;;;;;;;9.30;2.00;;;27.70;99.90;;;;;;5091013;28;20202;-78
2023/03/12 03:28:43;;;;;;;6.10;1.67;;;27.90;99.90;;;;;;5092074;28;20616;-79
2023/03/12 03:31:14;;;;;;;6.95;1.73;;;28.00;99.90;;;;;;5093197;28;20202;-79
2023/03/12 03:33:45;;;;;;;9.50;1.98;;;28.20;99.90;;;;;;5106510;28;20199;-79
2023/03/12 03:36:17;;;;;;;5.22;2.00;;;28.20;99.90;;;;;;5109849;28;20188;-80
2023/03/12 03:38:49;;;;;;;5.60;2.00;;;28.30;99.90;;;;;;5111600;28;20198;-79
2023/03/12 03:41:21;;;;;;;8.43;2.25;;;28.30;99.90;;;;;;5099047;28;20577;-79
2023/03/12 03:43:57;;;;;;;7.95;2.45;;;28.30;99.90;;;;;;5094582;28;20282;-79
2023/03/12 03:46:29;;;;;;;6.40;2.08;;;28.40;99.90;;;;;;5095498;28;20190;-79
2023/03/12 03:49:00;;;;;;;5.32;1.90;;;28.40;99.90;;;;;;5111462;28;20211;-79
2023/03/12 03:51:31;;;;;;;6.45;2.15;;;28.50;99.90;;;;;;5105013;28;20205;-79
2023/03/12 03:54:03;;;;;;;6.03;2.15;;;28.60;99.90;;;;;;5093054;28;20199;-78
2023/03/12 03:56:34;;;;;;;4.20;2.00;;;28.60;99.90;;;;;;5106217;28;20206;-82
2023/03/12 03:59:07;;;;;;;6.68;1.90;;;28.60;99.90;;;;;;5094184;28;20718;-79
2023/03/12 04:01:38;;;;;;;7.28;2.30;;;28.60;99.90;;;;;;5104154;28;20218;-79
2023/03/12 04:04:09;;;;;;;5.90;2.30;;;28.40;99.90;;;;;;5099391;28;20195;-79
2023/03/12 04:06:40;;;;;;;6.40;1.77;;;28.40;99.90;;;;;;5108233;28;20187;-77
2023/03/12 04:09:14;;;;;;;6.22;1.80;;;28.30;99.90;;;;;;5093154;28;20199;-78
2023/03/12 04:11:45;;;;;;;7.18;2.20;;;28.20;99.90;;;;;;5092631;28;20222;-79
2023/03/12 04:14:18;;;;;;;5.70;2.03;;;28.30;99.90;;;;;;5102758;28;20195;-78
2023/03/12 04:16:50;;;;;;;8.15;2.10;;;28.40;99.90;;;;;;5103702;28;20211;-79
2023/03/12 04:19:21;;;;;;;5.93;1.88;;;28.50;99.90;;;;;;5093706;28;20554;-77
2023/03/12 04:21:52;;;;;;;6.97;2.03;;;28.30;99.90;;;;;;5091965;28;20231;-79
2023/03/12 04:24:25;;;;;;;8.05;2.33;;;28.30;99.90;;;;;;5093101;28;20199;-78
2023/03/12 04:26:56;;;;;;;8.43;2.10;;;28.20;99.90;;;;;;5099715;28;20197;-79
2023/03/12 04:29:30;;;;;;;4.07;1.70;;;28.30;99.90;;;;;;5102872;28;20199;-79
2023/03/12 04:32:01;;;;;;;4.95;2.10;;;28.40;99.90;;;;;;5092036;28;20195;-79
2023/03/12 04:34:32;;;;;;;8.38;2.00;;;28.30;99.90;;;;;;5100511;28;20217;-80
2023/03/12 04:37:07;;;;;;;5.82;2.10;;;28.30;99.90;;;;;;5111880;28;20206;-79
2023/03/12 04:39:38;;;;;;;14.10;2.25;;;28.20;99.90;;;;;;5099638;28;20653;-79
2023/03/12 04:42:10;;;;;;;6.25;2.20;;;28.10;99.90;;;;;;5100789;28;20218;-80
2023/03/12 04:44:43;;;;;;;6.63;1.80;;;28.00;99.90;;;;;;5102577;28;20685;-80
2023/03/12 04:47:16;;;;;;;7.05;2.10;;;27.80;99.90;;;;;;5100326;28;20282;-79
2023/03/12 04:49:47;;;;;;;7.57;2.00;;;27.70;99.90;;;;;;5111290;28;20194;-80
2023/03/12 04:52:18;;;;;;;5.10;2.08;;;27.60;99.90;;;;;;5099757;28;20195;-80
2023/03/12 04:54:49;;;;;;;7.43;2.33;;;27.50;99.90;;;;;;5110910;28;20256;-81
2023/03/12 04:57:23;;;;;;;7.70;1.98;;;27.40;99.90;;;;;;5101988;28;20247;-80
2023/03/12 04:59:56;;;;;;;9.30;2.10;;;27.30;99.90;;;;;;5095137;28;20210;-80
2023/03/12 05:02:31;;;;;;;8.07;2.08;;;27.30;99.90;;;;;;5093385;28;20230;-80
2023/03/12 05:05:02;;;;;;;5.82;1.92;;;27.00;99.90;;;;;;5101781;28;20187;-79
2023/03/12 05:07:36;;;;;;;6.50;1.98;;;27.00;99.90;;;;;;5104577;28;20190;-79
2023/03/12 05:10:08;;;;;;;6.43;1.70;;;26.90;99.90;;;;;;5113499;28;20581;-80
2023/03/12 05:12:39;;;;;;;4.32;1.70;;;26.80;99.90;;;;;;5101047;28;20229;-80
2023/03/12 05:15:13;;;;;;;7.80;1.95;;;26.80;99.90;;;;;;5093246;28;20199;-80
2023/03/12 05:17:44;;;;;;;8.95;1.85;;;26.80;99.90;;;;;;5109349;28;20218;-80
2023/03/12 05:20:16;;;;;;;7.90;2.08;;;26.80;99.90;;;;;;5098276;28;20190;-80
2023/03/12 05:22:47;;;;;;;6.25;1.92;;;26.70;99.90;;;;;;5113015;28;20222;-80
2023/03/12 05:25:18;;;;;;;7.93;2.00;;;26.70;99.90;;;;;;5112080;28;20200;-80
2023/03/12 05:27:49;;;;;;;8.50;1.98;;;26.60;99.90;;;;;;5106894;28;20222;-80
2023/03/12 05:30:23;;;;;;;5.63;2.30;;;26.50;99.90;;;;;;5113733;28;20198;-79
2023/03/12 05:32:54;;;;;;;7.43;1.88;;;26.50;99.90;;;;;;5099292;28;20203;-81
2023/03/12 05:35:25;;;;;;;5.40;1.90;;;26.50;99.90;;;;;;5103914;28;20642;-79
2023/03/12 05:37:56;;;;;;;5.07;2.10;;;26.50;99.90;;;;;;5092955;28;20213;-81
2023/03/12 05:40:27;;;;;;;9.13;2.08;;;26.60;99.90;;;;;;5093164;28;20210;-79
2023/03/12 05:43:00;;;;;;;11.25;2.50;;;26.60;99.90;;;;;;5095840;28;20227;-81
2023/03/12 05:45:33;;;;;;;7.63;2.20;;;26.60;99.90;;;;;;5094543;28;20642;-79
2023/03/12 05:48:04;;;;;;;6.60;2.15;;;26.60;99.90;;;;;;5093246;28;20195;-79
2023/03/12 05:50:36;;;;;;;8.63;2.47;;;26.50;99.90;;;;;;5104222;28;20205;-80
2023/03/12 05:53:07;;;;;;;10.43;2.78;;;26.50;99.90;;;;;;5096937;28;20214;-79
2023/03/12 05:55:38;;;;;;;8.25;2.10;;;26.50;99.90;;;;;;5113023;28;20198;-79
2023/03/12 05:58:11;;;;;;;8.48;1.80;;;26.40;99.90;;;;;;5112856;28;20195;-79
2023/03/12 06:00:44;;;;;;;4.32;1.65;;;26.40;99.90;;;;;;5111986;28;20534;-80
2023/03/12 06:03:15;;;;;;;6.53;2.00;;;26.40;99.90;;;;;;5109474;28;20299;-79
2023/03/12 06:05:48;;;;;;;5.72;1.95;;;26.40;99.90;;;;;;5102579;28;20218;-79
2023/03/12 06:08:19;;;;;;;8.60;2.38;;;26.30;99.90;;;;;;5102192;28;20191;-79
2023/03/12 06:10:53;;;;;;;8.05;1.92;;;26.30;99.90;;;;;;5108233;28;20196;-79
2023/03/12 06:13:26;;;;;;;8.25;2.50;;;26.30;99.90;;;;;;5092159;28;20638;-78
2023/03/12 06:16:08;;;;;;;6.55;2.35;;;26.30;99.90;;;;;;5094155;28;20203;-79
2023/03/12 06:18:39;;;;;;;9.45;1.90;;;26.30;99.90;;;;;;5101057;28;20192;-79
2023/03/12 06:21:16;;;;;;;5.68;1.92;;;26.20;99.90;;;;;;5092259;28;20206;-79
2023/03/12 06:23:48;;;;;;;8.27;2.25;;;26.30;99.90;;;;;;5091267;28;20542;-80
2023/03/12 06:26:20;;;;;;;8.35;2.22;;;26.30;99.90;;;;;;5091569;28;20198;-79
2023/03/12 06:28:52;;;;;;;5.18;1.95;;;26.30;99.90;;;;;;5112576;28;20226;-79
2023/03/12 06:31:26;;;;;;;10.50;2.53;;;26.30;99.90;;;;;;5103869;28;20199;-78
2023/03/12 06:33:57;;;;;;;9.80;2.42;;;26.30;99.90;;;;;;5104467;28;20216;-80
2023/03/12 06:36:28;;;;;;;5.32;2.25;;;26.30;99.90;;;;;;5097357;28;20199;-79
2023/03/12 06:38:59;;;;;;;7.78;2.20;;;26.30;99.90;;;;;;5092532;28;20278;-79
2023/03/12 06:41:30;;;;;;;6.45;2.05;;;26.30;99.90;;;;;;5111680;28;20199;-80
2023/03/12 06:44:02;;;;;;;6.50;2.17;;;26.30;99.90;;;;;;5100194;28;20210;-80
2023/03/12 06:46:53;;;;;;;7.65;2.40;;;26.20;99.90;;;;;;5093354;28;20279;-80
2023/03/12 06:49:26;;;;;;;7.55;2.42;;;26.10;99.90;;;;;;5094815;28;20199;-80
2023/03/12 06:51:57;;;;;;;11.10;2.45;;;26.10;99.90;;;;;;5102871;28;20224;-80
2023/03/12 06:54:28;;;;;;;5.72;2.10;;;26.10;99.90;;;;;;5103581;28;20197;-79
2023/03/12 06:57:00;;;;;;;6.70;2.30;;;26.10;99.90;;;;;;5102449;28;20195;-80
2023/03/12 06:59:31;;;;;;;8.60;2.95;;;26.00;99.90;;;;;;5093025;28;20190;-80
2023/03/12 07:02:04;;;;;;;10.27;2.50;;;25.90;99.90;;;;;;5099102;28;20214;-79
2023/03/12 07:04:35;;;;;;;10.35;2.58;;;26.00;99.90;;;;;;5103399;28;20191;-79
2023/03/12 07:07:07;;;;;;;9.48;2.08;;;26.00;99.90;;;;;;5098698;28;20195;-79
2023/03/12 07:09:38;;;;;;;8.60;2.17;;;25.90;99.90;;;;;;5093341;28;20187;-79
2023/03/12 07:12:10;;;;;;;8.18;2.50;;;25.90;99.90;;;;;;5091715;28;20742;-80
2023/03/12 07:14:41;;;;;;;9.40;2.42;;;25.80;99.90;;;;;;5109781;28;20194;-79
2023/03/12 07:17:14;;;;;;;7.78;2.30;;;25.80;99.90;;;;;;5101691;28;20222;-79
2023/03/12 07:19:45;;;;;;;10.63;2.50;;;25.80;99.90;;;;;;5099318;28;20198;-79
2023/03/12 07:22:16;;;;;;;7.55;2.30;;;25.80;99.90;;;;;;5096817;28;20226;-79
2023/03/12 07:24:47;;;;;;;8.60;2.17;;;25.80;99.90;;;;;;5096412;28;20191;-80
2023/03/12 07:27:19;;;;;;;7.38;2.38;;;25.80;99.90;;;;;;5099364;28;20230;-80
2023/03/12 07:29:50;;;;;;;7.85;2.47;;;25.70;99.90;;;;;;5111786;28;20199;-79
2023/03/12 07:32:23;;;;;;;8.70;2.17;;;25.80;99.90;;;;;;5107401;27;20721;-80
2023/03/12 07:34:54;;;;;;;6.97;2.20;;;25.70;99.90;;;;;;5094018;28;20238;-80
2023/03/12 07:37:25;;;;;;;5.85;2.30;;;25.80;99.90;;;;;;5093935;28;20562;-79
2023/03/12 07:39:57;;;;;;;7.45;2.15;;;25.70;99.90;;;;;;5097773;28;20206;-80
2023/03/12 07:42:28;;;;;;;5.28;2.13;;;25.80;99.90;;;;;;5105656;28;20218;-80
2023/03/12 07:44:59;;;;;;;7.53;2.22;;;25.70;99.90;;;;;;5107170;28;20195;-79
2023/03/12 07:47:32;;;;;;;9.27;2.65;;;25.70;99.90;;;;;;5091020;28;20196;-80
2023/03/12 07:50:03;;;;;;;6.22;2.55;;;25.70;99.90;;;;;;5103437;28;20207;-78
2023/03/12 07:52:37;;;;;;;5.07;2.08;;;25.60;99.90;;;;;;5095987;28;20300;-78
2023/03/12 07:55:09;;;;;;;7.07;2.30;;;25.60;99.90;;;;;;5089804;28;20199;-79
2023/03/12 07:57:40;;;;;;;6.60;2.20;;;25.60;99.90;;;;;;5089976;28;20195;-81
2023/03/12 08:00:12;;;;;;;6.82;2.28;;;25.60;99.90;;;;;;5090689;28;20203;-79
2023/03/12 08:02:45;;;;;;;8.73;2.63;;;25.60;99.90;;;;;;5102117;28;20218;-79
2023/03/12 08:05:16;;;;;;;7.85;2.63;;;25.50;99.90;;;;;;5111410;28;20201;-79
2023/03/12 08:07:48;;;;;;;7.75;2.92;;;25.60;99.90;;;;;;5106195;28;20650;-78
2023/03/12 08:10:19;;;;;;;6.38;2.53;;;25.50;99.90;;;;;;5094196;28;20213;-78
2023/03/12 08:12:50;;;;;;;5.15;2.17;;;25.50;99.90;;;;;;5091547;28;20575;-79
2023/03/12 08:15:21;;;;;;;6.50;2.40;;;25.40;99.90;;;;;;5102915;28;20192;-79
2023/03/12 08:17:54;;;;;;;7.20;3.20;;;25.40;99.90;;;;;;5094171;28;20215;-80
2023/03/12 08:20:25;;;;;;;9.45;2.85;;;25.40;99.90;;;;;;5098495;28;20204;-79
2023/03/12 08:22:56;;;;;;;9.73;2.72;;;25.40;99.90;;;;;;5109827;28;20581;-79
2023/03/12 08:25:27;;;;;;;8.50;2.72;;;25.40;99.90;;;;;;5110965;28;20202;-80
2023/03/12 08:27:58;;;;;;;8.35;2.47;;;25.40;99.90;;;;;;5107214;28;20219;-80
2023/03/12 08:30:30;;;;;;;7.95;2.78;;;25.30;99.90;;;;;;5092186;28;20286;-79
2023/03/12 08:33:03;;;;;;;6.43;2.60;;;25.30;99.90;;;;;;5096328;28;20274;-79
2023/03/12 08:35:36;;;;;;;6.85;2.53;;;25.30;99.90;;;;;;5113839;28;20213;-78
2023/03/12 08:38:07;;;;;;;12.10;3.58;;;25.30;99.90;;;;;;5100150;28;20199;-80
2023/03/12 08:40:38;;;;;;;8.05;3.00;;;25.30;99.90;;;;;;5094251;28;20214;-80
2023/03/12 08:43:09;;;;;;;13.23;5.00;;;25.30;99.90;;;;;;5117204;28;20586;-82
2023/03/12 08:45:41;;;;;;;8.65;3.60;;;25.30;99.90;;;;;;5114542;28;20661;-83
2023/03/12 08:48:14;;;;;;;7.43;3.33;;;25.20;99.90;;;;;;5102776;28;20203;-83
2023/03/12 08:50:45;;;;;;;9.10;2.80;;;25.20;99.90;;;;;;5100778;28;20209;-82
2023/03/12 08:53:16;;;;;;;6.72;2.63;;;25.20;99.90;;;;;;5103883;28;20195;-84
2023/03/12 08:55:47;;;;;;;11.15;2.90;;;25.20;99.90;;;;;;5119819;28;20226;-81
2023/03/12 08:58:19;;;;;;;8.93;2.63;;;25.20;99.90;;;;;;5102261;28;20539;-80
2023/03/12 09:00:50;;;;;;;9.20;2.67;;;25.20;99.90;;;;;;5100316;28;20203;-79
2023/03/12 09:03:23;;;;;;;8.15;3.70;;;25.20;99.90;;;;;;5099760;28;20253;-80
2023/03/12 09:06:06;;;;;;;9.27;3.08;;;25.10;99.90;;;;;;5113052;28;20564;-79
2023/03/12 09:08:38;;;;;;;10.02;2.90;;;25.20;99.90;;;;;;5112951;28;20265;-81
2023/03/12 09:11:10;;;;;;;9.45;2.65;;;25.20;99.90;;;;;;5121822;28;20194;-79
2023/03/12 09:13:42;;;;;;;8.57;2.60;;;25.00;99.90;;;;;;5098733;28;20286;-80
2023/03/12 09:16:13;;;;;;;9.70;3.42;;;25.10;99.90;;;;;;5099580;28;20199;-81
2023/03/12 09:18:46;;;;;;;9.30;3.90;;;25.00;99.90;;;;;;5104027;28;20190;-80
2023/03/12 09:21:17;;;;;;;11.65;3.92;;;25.00;99.90;;;;;;5107533;28;20202;-78
2023/03/12 09:23:53;;;;;;;7.97;3.35;;;24.90;99.90;;;;;;5114890;28;20226;-80
2023/03/12 09:26:25;;;;;;;9.38;3.05;;;24.90;99.90;;;;;;5100036;28;20198;-80
2023/03/12 09:28:56;;;;;;;8.98;2.67;;;24.90;99.90;;;;;;5097541;28;20227;-79
2023/03/12 09:31:28;;;;;;;6.10;2.58;;;24.90;99.90;;;;;;5108108;28;20195;-81
2023/03/12 09:34:01;;;;;;;8.65;3.15;;;24.90;99.90;;;;;;5107582;28;20633;-80
2023/03/12 09:36:32;;;;;;;9.05;2.80;;;24.90;99.90;;;;;;5103571;28;20206;-78
2023/03/12 09:39:03;;;;;;;6.70;2.30;;;24.90;99.90;;;;;;5119398;28;20576;-79
2023/03/12 09:41:38;;;;;;;9.93;2.63;;;24.90;99.90;;;;;;5114939;28;20234;-80
2023/03/12 09:44:15;;;;;;;9.30;2.60;;;24.90;99.90;;;;;;5114793;28;20261;-80
2023/03/12 09:46:54;;;;;;;6.07;2.53;;;24.90;99.90;;;;;;5097283;28;20202;-80
2023/03/12 09:49:36;;;;;;;6.70;2.50;;;24.90;99.90;;;;;;5099239;28;20574;-79
2023/03/12 09:52:20;;;;;;;7.22;2.60;;;24.90;99.90;;;;;;5097975;28;20202;-79
2023/03/12 09:54:58;;;;;;;8.77;2.40;;;24.80;99.90;;;;;;5109005;28;20198;-80
2023/03/12 09:57:31;;;;;;;6.53;2.42;;;24.70;99.90;;;;;;5113891;28;20202;-79
2023/03/12 10:00:05;;;;;;;8.00;2.60;;;24.70;99.90;;;;;;5104064;28;20199;-79
2023/03/12 10:03:07;;;;;;;7.97;2.30;;;24.70;99.90;;;;;;5111330;28;20230;-79
2023/03/12 10:05:47;;;;;;;6.80;2.45;;;24.70;99.90;;;;;;5106325;28;20198;-79
2023/03/12 10:08:27;;;;;;;6.50;2.47;;;24.70;99.90;;;;;;5101087;28;20195;-79
2023/03/12 10:11:12;;;;;;;6.07;2.45;;;24.80;99.90;;;;;;5115917;28;20194;-78
2023/03/12 10:14:07;;;;;;;6.22;2.40;;;24.70;99.90;;;;;;5101735;28;20673;-79
2023/03/12 10:16:55;;;;;;;7.25;2.30;;;24.70;99.90;;;;;;5094493;28;20215;-79
2023/03/12 10:19:41;;;;;;;5.60;2.53;;;24.70;99.90;;;;;;5112873;28;20195;-78
2023/03/12 10:22:27;;;;;;;8.27;3.08;;;24.70;99.90;;;;;;5097442;28;20311;-79
2023/03/12 10:25:07;;;;;;;5.93;2.65;;;24.70;99.90;;;;;;5104310;28;20642;-79
2023/03/12 10:27:44;;;;;;;10.23;2.75;;;24.70;99.90;;;;;;5115825;28;20230;-80
2023/03/12 10:30:25;;;;;;;9.80;2.65;;;24.80;99.90;;;;;;5112884;28;20198;-79
2023/03/12 10:33:00;;;;;;;6.95;2.75;;;24.70;99.90;;;;;;5104208;28;20203;-81
2023/03/12 10:35:32;;;;;;;8.75;2.35;;;24.70;99.90;;;;;;5112654;28;20660;-80
2023/03/12 10:38:07;;;;;;;5.75;2.60;;;24.70;99.90;;;;;;5096205;28;20206;-80
2023/03/12 10:40:40;;;;;;;3.80;2.15;;;24.70;99.90;;;;;;5095925;28;20202;-79
2023/03/12 10:43:11;;;;;;;7.40;2.75;;;24.70;99.90;;;;;;5104889;28;20754;-80
2023/03/12 10:45:53;;;;;;;5.43;2.40;;;24.70;99.90;;;;;;5115243;28;20234;-78
2023/03/12 10:48:29;;;;;;;6.72;2.50;;;24.70;99.90;;;;;;5104952;28;20188;-79
2023/03/12 10:51:06;;;;;;;5.80;2.40;;;24.70;99.90;;;;;;5118638;28;20203;-80
2023/03/12 10:53:46;;;;;;;9.15;2.55;;;24.70;99.90;;;;;;5123388;28;20190;-79
2023/03/12 10:56:24;;;;;;;6.88;2.42;;;24.70;99.90;;;;;;5118815;28;20218;-78
2023/03/12 10:58:58;;;;;;;8.93;2.55;;;24.70;99.90;;;;;;5119310;28;20190;-79
2023/03/12 11:01:34;;;;;;;8.95;2.75;;;24.70;99.90;;;;;;5107693;28;20195;-79
2023/03/12 11:04:21;;;;;;;5.55;2.72;;;24.60;99.90;;;;;;5100628;28;20222;-79
2023/03/12 11:07:14;;;;;;;5.05;2.28;;;24.60;99.90;;;;;;5098521;28;20191;-79
2023/03/12 11:10:04;;;;;;;7.20;2.70;;;24.60;99.90;;;;;;5109120;28;20195;-78
2023/03/12 11:12:39;;;;;;;5.32;2.10;;;24.60;99.90;;;;;;5106235;28;20194;-80
2023/03/12 11:15:24;;;;;;;5.22;2.40;;;24.60;99.90;;;;;;5111091;28;20206;-79
2023/03/12 11:18:15;;;;;;;5.35;2.33;;;24.60;99.90;;;;;;5111090;28;20218;-79
2023/03/12 11:20:47;;;;;;;6.32;2.38;;;24.60;99.90;;;;;;5104108;28;20278;-80
2023/03/12 11:23:21;;;;;;;6.75;2.30;;;24.60;99.90;;;;;;5106268;28;20720;-80
2023/03/12 11:26:01;;;;;;;4.97;2.17;;;24.60;99.90;;;;;;5097138;28;20675;-78
2023/03/12 11:28:40;;;;;;;8.82;2.97;;;24.60;99.90;;;;;;5115562;28;20290;-78
2023/03/12 11:31:17;;;;;;;6.15;2.30;;;24.60;99.90;;;;;;5102929;28;20205;-79
2023/03/12 11:33:48;;;;;;;5.07;2.15;;;24.60;99.90;;;;;;5112909;28;20187;-80
2023/03/12 11:36:42;;;;;;;7.57;2.33;;;24.60;99.90;;;;;;5109227;28;20191;-80
2023/03/12 11:39:24;;;;;;;4.78;2.17;;;24.60;99.90;;;;;;5115122;28;20645;-80
2023/03/12 11:42:11;;;;;;;6.38;2.25;;;24.60;99.90;;;;;;5102017;28;20199;-79
2023/03/12 11:44:52;;;;;;;5.20;2.13;;;24.50;99.90;;;;;;5098141;28;20225;-80
2023/03/12 11:47:34;;;;;;;5.90;2.20;;;24.50;99.90;;;;;;5112016;28;20577;-81
2023/03/12 11:50:20;;;;;;;8.13;2.47;;;24.60;99.90;;;;;;5108006;28;20210;-79
2023/03/12 11:53:11;;;;;;;7.80;2.20;;;24.60;99.90;;;;;;5096967;28;20195;-79
2023/03/12 11:55:53;;;;;;;5.07;2.10;;;24.60;99.90;;;;;;5112465;28;20186;-79
2023/03/12 11:58:44;;;;;;;6.80;2.10;;;24.60;99.90;;;;;;5108574;28;20207;-80
2023/03/12 12:01:22;;;;;;;6.93;2.22;;;24.60;99.90;;;;;;5097403;28;20199;-80
2023/03/12 12:04:23;;;;;;;4.93;1.85;;;24.60;99.90;;;;;;5107744;28;20225;-80
2023/03/12 12:07:06;;;;;;;5.57;2.50;;;24.60;99.90;;;;;;5116299;28;20571;-80
2023/03/12 12:09:44;;;;;;;5.97;2.10;;;24.60;99.90;;;;;;5110748;28;20195;-80
2023/03/12 12:12:37;;;;;;;9.95;2.35;;;24.50;99.90;;;;;;5103071;28;20270;-79
2023/03/12 12:15:23;;;;;;;6.05;2.15;;;24.60;99.90;;;;;;5106235;28;20206;-79
2023/03/12 12:18:04;;;;;;;5.18;1.90;;;24.50;99.90;;;;;;5120428;28;20241;-79
2023/03/12 12:20:48;;;;;;;5.07;2.03;;;24.50;99.90;;;;;;5102588;28;20191;-79
2023/03/12 12:23:24;;;;;;;6.47;2.10;;;24.50;99.90;;;;;;5119354;28;20537;-80
2023/03/12 12:26:10;;;;;;;8.30;2.55;;;24.50;99.90;;;;;;5103438;28;20215;-80
2023/03/12 12:28:50;;;;;;;5.80;2.35;;;24.50;99.90;;;;;;5106615;28;20222;-79
2023/03/12 12:31:43;;;;;;;5.68;2.00;;;24.50;99.90;;;;;;5113076;28;20674;-79
2023/03/12 12:34:56;;;;;;;5.50;2.00;;;24.50;99.90;;;;;;5109318;28;20199;-80
2023/03/12 12:37:45;;;;;;;8.13;2.13;;;24.50;99.90;;;;;;5115111;28;20212;-79
2023/03/12 12:40:24;;;;;;;6.18;1.90;;;24.50;99.90;;;;;;5112670;28;20722;-79
2023/03/12 12:43:05;;;;;;;5.78;2.10;;;24.60;99.90;;;;;;5113590;28;20664;-79
2023/03/12 12:45:40;;;;;;;6.47;2.00;;;24.50;99.90;;;;;;5093337;28;20198;-79
2023/03/12 12:48:18;;;;;;;6.80;1.95;;;24.60;99.90;;;;;;5093153;28;20195;-79
2023/03/12 12:50:51;;;;;;;6.80;2.00;;;24.50;99.90;;;;;;5093308;28;20195;-79
2023/03/12 12:53:28;;;;;;;5.68;2.30;;;24.50;99.90;;;;;;5094838;28;20637;-78
2023/03/12 12:56:05;;;;;;;5.88;2.05;;;24.50;99.90;;;;;;5111634;28;20680;-78
2023/03/12 12:59:10;;;;;;;5.80;2.10;;;24.50;99.90;;;;;;5110774;28;20186;-78
2023/03/12 13:01:45;;;;;;;4.55;1.73;;;24.50;99.90;;;;;;5090342;28;20201;-79
2023/03/12 13:04:25;;;;;;;7.22;2.00;;;24.50;99.90;;;;;;5094866;28;20223;-79
2023/03/12 13:07:02;;;;;;;7.18;2.20;;;24.40;99.90;;;;;;5095591;28;20199;-79
2023/03/12 13:09:44;;;;;;;7.07;1.85;;;24.50;99.90;;;;;;5105715;28;20191;-80
2023/03/12 13:12:22;;;;;;;6.30;2.38;;;24.50;99.90;;;;;;5094582;28;20203;-77
2023/03/12 13:14:55;;;;;;;5.30;1.77;;;24.50;99.90;;;;;;5097088;28;20190;-79
2023/03/12 13:17:31;;;;;;;4.82;2.25;;;24.50;99.90;;;;;;5105386;28;20682;-80
2023/03/12 13:20:21;;;;;;;3.65;1.60;;;24.50;99.90;;;;;;5107218;28;20194;-81
2023/03/12 13:23:32;;;;;;;5.55;2.00;;;24.50;99.90;;;;;;5094422;28;20195;-80
2023/03/12 13:26:10;;;;;;;6.53;1.98;;;24.50;99.90;;;;;;5110455;28;20202;-80